Minnehaha Springs, West Virginia
Current Conditions -  °F | °C
As of 4:35 AM on Saturday 20 Dec 2014 (Local Time) from KHSP Reporting Station
Clear Clear  
Wind Chill: -4°   Ceiling: Unl
Heat Index: -4°   Visibility: 10mi
Dew Point: -7°   Wind: 3mph
Humidity: 78%   Direction: 220°SW
Pressure: 30.06"   Gusts: NA
Location:  38.2213°N, 80.0565°W
Report Text: KHSP 200935Z AUTO 22003KT 10SM CLR M04/M07 A3006 RMK AO2 T10391072
Loading
Personal Weather Stations






























Interactive Weather Map New forecast layout! Learn more

10-Day Weather Forecast

Advertisements
Track Severe Weather on mobile